Kortemark, Belgium
Current Conditions -  °F | °C
As of 10:50 AM on Friday 24 Oct 2014 (Local Time) from EBOS Reporting Station
Light Rain Light Rain  
Wind Chill: 52°   Ceiling: 600
Heat Index: 52°   Visibility: 2.8mi
Dew Point: 48°   Wind: 13mph
Humidity: 88%   Direction: 180°S
Pressure: 30.06"   Gusts: NA
Location:  51.03°N, 3.04°E
Report Text: EBOS 240850Z 18011KT 4500 -RADZ BR BKN006 BKN024 11/09 Q1018 TEMPO 6000 -RA SCT006 BKN024
Loading
Personal Weather Stations






























Interactive Weather Map
Tropical Storm Tracking
New forecast layout! Learn more

10-Day Weather Forecast

Advertisements
Track Severe Weather on mobile